• Join FlightAware (Why Join?)
  • Login
  • US Flag 
08:24AM EDT


 

Airport Tracker/Info


-or-


 

Live Flight TrackerFlight Track Log ✈ BOE3 ✈ 18-Apr-2010 ✈ KBFI - KVPS

Flight Track Log - Related Links

Times and Time Zones

All times are in EDT time to prevent confusion due to time zone crossing. See the BOE3 flight status page for this flight to view local times or setup timezone preferences in your user account.

Time Position Orientation Groundspeed Altitude Reporting Facility
EDT Latitude Longitude Course Direction KTS MPH feet Rate Location/Type
10:08AM 47.5108 -122.2910 147° Southeast 170 196 1,200  Level Seattle Center
10:09AM 47.4558 -122.2390 156° South 229 264 3,500 1,560 Climbing Seattle Center
10:10AM 47.3922 -122.1970 175° South 254 292 4,600 1,560 Climbing Seattle Center
10:11AM 47.3194 -122.1880 165° South 265 305 6,700 2,520 Climbing Seattle Center
10:12AM 47.2472 -122.1600 169° South 274 315 9,700 2,700 Climbing Seattle Center
10:13AM 47.1686 -122.1380 169° South 290 334 12,200 2,040 Climbing Seattle Center
10:14AM 47.0589 -122.1060 170° South 379 436 14,000 1,980 Climbing Seattle Center
10:15AM 46.9594 -122.0810 169° South 368 423 16,400 2,400 Climbing Seattle Center
10:16AM 46.8581 -122.0520 170° South 368 423 18,900 2,520 Climbing Seattle Center
10:17AM 46.7503 -122.0230 168° South 380 437 21,500 2,640 Climbing Seattle Center
10:18AM 46.6364 -121.9890 131° Southeast 404 465 24,200 2,100 Climbing Seattle Center
10:19AM 46.5597 -121.8590 117° Southeast 390 449 25,800 1,380 Climbing Seattle Center
10:20AM 46.5000 -121.6910 120° Southeast 421 484 27,000 600 Climbing Seattle Center
10:21AM 46.4381 -121.5350 120° Southeast 435 501 27,000  Level Seattle Center
10:22AM 46.3778 -121.3830 122° Southeast 440 506 27,000  Level Seattle Center
10:23AM 46.3131 -121.2310 120° Southeast 440 506 27,000  Level Seattle Center
10:24AM 46.2525 -121.0790 120° Southeast 440 506 27,000  Level Seattle Center
10:25AM 46.1914 -120.9250 121° Southeast 440 506 27,000  Level Seattle Center
10:26AM 46.1264 -120.7710 120° Southeast 440 506 27,000  Level Seattle Center
10:27AM 46.0650 -120.6200 120° Southeast 440 506 27,000  Level Seattle Center
10:28AM 46.0036 -120.4700 121° Southeast 440 506 27,000  Level Seattle Center
10:29AM 45.9397 -120.3200 121° Southeast 435 501 27,000  Level Seattle Center
10:30AM 45.8778 -120.1700 122° Southeast 435 501 27,000  Level Seattle Center
10:31AM 45.8136 -120.0210 121° Southeast 435 501 27,000  Level Seattle Center
10:32AM 45.7514 -119.8720 121° Southeast 435 501 27,000  Level Seattle Center
10:33AM 45.6869 -119.7200 123° Southeast 435 501 27,000  Level Seattle Center
10:34AM 45.6200 -119.5720 121° Southeast 435 501 27,000  Level Seattle Center
10:35AM 45.5572 -119.4210 122° Southeast 435 501 27,000  Level Seattle Center
10:36AM 45.4919 -119.2730 117° Southeast 435 501 27,000  Level Seattle Center
11:21AM 42.8731 -112.6490 114° Southeast 444 511 27,000  Level Salt Lake Center
11:22AM 42.8275 -112.5120 115° Southeast 444 511 27,000  Level Salt Lake Center
11:23AM 42.7756 -112.3610 114° Southeast 439 505 27,000  Level Salt Lake Center
11:24AM 42.7214 -112.1920 116° Southeast 432 497 27,000  Level Salt Lake Center
11:25AM 42.6711 -112.0500 114° Southeast 446 513 27,000  Level Salt Lake Center
11:26AM 42.6147 -111.8820 115° Southeast 440 506 27,000  Level Salt Lake Center
11:27AM 42.5639 -111.7350 115° Southeast 440 506 27,000  Level Salt Lake Center
11:28AM 42.5111 -111.5820 115° Southeast 445 512 27,000  Level Salt Lake Center
11:29AM 42.4581 -111.4290 115° Southeast 445 512 27,000  Level Salt Lake Center
11:30AM 42.4067 -111.2800 115° Southeast 440 506 27,000  Level Salt Lake Center
11:31AM 42.3553 -111.1300 115° Southeast 440 506 27,000  Level Salt Lake Center
11:32AM 42.3036 -110.9810 118° Southeast 440 506 27,000  Level Salt Lake Center
11:33AM 42.2478 -110.8380 116° Southeast 423 487 27,000  Level Salt Lake Center
11:34AM 42.1956 -110.6920 114° Southeast 429 494 27,000  Level Salt Lake Center
11:35AM 42.1497 -110.5550 116° Southeast 436 502 27,000  Level Salt Lake Center
11:36AM 42.0889 -110.3900 115° Southeast 442 509 27,000  Level Salt Lake Center
11:37AM 42.0364 -110.2360 116° Southeast 448 516 27,000  Level Salt Lake Center
11:38AM 41.9878 -110.1030 116° Southeast 443 510 27,000  Level Salt Lake Center
11:39AM 41.9350 -109.9550 116° Southeast 443 510 27,000  Level Salt Lake Center
11:40AM 41.8753 -109.7880 116° Southeast 443 510 27,000  Level Salt Lake Center
11:41AM 41.8219 -109.6410 117° Southeast 449 517 27,000  Level Salt Lake Center
11:42AM 41.7706 -109.5060 115° Southeast 449 517 27,000  Level Salt Lake Center
11:43AM 41.7189 -109.3570 117° Southeast 449 517 27,000  Level Salt Lake Center
11:44AM 41.6586 -109.1970 115° Southeast 444 511 27,000  Level Salt Lake Center
11:45AM 41.6044 -109.0450 119° Southeast 444 511 27,000  Level Salt Lake Center
11:47AM 41.4789 -108.7410 119° Southeast 443 510 27,000  Level Denver Center
11:48AM 41.4192 -108.6000 118° Southeast 443 510 27,000  Level Denver Center
11:49AM 41.3553 -108.4400 119° Southeast 443 510 27,000  Level Denver Center
11:50AM 41.2950 -108.2980 119° Southeast 443 510 27,000  Level Denver Center
11:51AM 41.2408 -108.1660 118° Southeast 443 510 27,000  Level Denver Center
11:52AM 41.1844 -108.0240 120° Southeast 443 510 27,000  Level Denver Center
11:53AM 41.1175 -107.8680 119° Southeast 443 510 27,000  Level Denver Center
11:54AM 41.0586 -107.7260 119° Southeast 448 516 27,000  Level Denver Center
11:55AM 41.0039 -107.5960 119° Southeast 443 510 27,000  Level Denver Center
11:56AM 40.9386 -107.4410 121° Southeast 448 516 27,000  Level Denver Center
11:57AM 40.8769 -107.3030 119° Southeast 442 509 27,000  Level Denver Center
11:58AM 40.8156 -107.1590 120° Southeast 442 509 27,000  Level Denver Center
11:59AM 40.7619 -107.0350 121° Southeast 442 509 27,000  Level Denver Center
12:00PM 40.7019 -106.9010 119° Southeast 442 509 27,000  Level Denver Center
12:01PM 40.6419 -106.7610 119° Southeast 442 509 27,000  Level Denver Center
12:02PM 40.5819 -106.6180 121° Southeast 442 509 27,000  Level Denver Center
12:03PM 40.5172 -106.4790 119° Southeast 442 509 27,000  Level Denver Center
12:04PM 40.4506 -106.3230 120° Southeast 443 510 27,000  Level Denver Center
12:05PM 40.3897 -106.1840 122° Southeast 438 504 27,000  Level Denver Center
12:06PM 40.3311 -106.0590 119° Southeast 448 516 27,000  Level Denver Center
12:07PM 40.2700 -105.9130 121° Southeast 448 516 27,000  Level Denver Center
12:08PM 40.2086 -105.7770 120° Southeast 443 510 27,000  Level Denver Center
12:09PM 40.1411 -105.6230 121° Southeast 448 516 27,000  Level Denver Center
12:10PM 40.0772 -105.4830 120° Southeast 441 507 27,000  Level Denver Center
12:11PM 40.0156 -105.3450 120° Southeast 441 507 27,000  Level Denver Center
12:12PM 39.9536 -105.2060 119° Southeast 441 507 27,000  Level Denver Center
12:13PM 39.8936 -105.0660 122° Southeast 441 507 27,000  Level Denver Center
12:14PM 39.8272 -104.9270 119° Southeast 441 507 27,000  Level Denver Center
12:15PM 39.7669 -104.7870 121° Southeast 441 507 27,000  Level Denver Center
12:16PM 39.7108 -104.6650 132° Southeast 441 507 27,000  Level Denver Center
12:17PM 39.6256 -104.5430 139° Southeast 447 514 27,000  Level Denver Center
12:18PM 39.5233 -104.4270 138° Southeast 447 514 27,000  Level Denver Center
12:19PM 39.4317 -104.3200 138° Southeast 447 514 27,000  Level Denver Center
12:20PM 39.3422 -104.2150 138° Southeast 435 501 27,000  Level Denver Center
12:21PM 39.2503 -104.1080 139° Southeast 435 501 27,000  Level Denver Center
12:22PM 39.1564 -104.0020 139° Southeast 440 506 27,000  Level Denver Center
12:23PM 39.0644 -103.8980 138° Southeast 440 506 27,000  Level Denver Center
12:24PM 38.9744 -103.7920 139° Southeast 440 506 27,000  Level Denver Center
12:25PM 38.8822 -103.6890 138° Southeast 440 506 27,000  Level Denver Center
12:26PM 38.7922 -103.5860 129° Southeast 440 506 27,000  Level Denver Center
12:27PM 38.7206 -103.4740 128° Southeast 440 506 27,000  Level Denver Center
12:28PM 38.6442 -103.3470 132° Southeast 454 522 27,000  Level Denver Center
12:29PM 38.5550 -103.2210 129° Southeast 454 522 27,000  Level Denver Center
12:30PM 38.4872 -103.1130 132° Southeast 439 505 27,000  Level Denver Center
12:31PM 38.3958 -102.9820 130° Southeast 444 511 27,000  Level Denver Center
12:32PM 38.3169 -102.8610 130° Southeast 444 511 27,000  Level Denver Center
12:36PM 38.0053 -102.3900 131° Southeast 446 513 27,000  Level Kansas City Center
12:37PM 37.9253 -102.2730 129° Southeast 435 501 27,000  Level Kansas City Center
12:38PM 37.8475 -102.1520 131° Southeast 435 501 27,000  Level Kansas City Center
12:39PM 37.7769 -102.0480 130° Southeast 434 499 27,000  Level Kansas City Center
12:40PM 37.6911 -101.9210 130° Southeast 434 499 27,000  Level Kansas City Center
12:41PM 37.6147 -101.8060 131° Southeast 434 499 27,000  Level Kansas City Center
12:42PM 37.5417 -101.7020 131° Southeast 428 493 27,000  Level Kansas City Center
12:43PM 37.4631 -101.5870 130° Southeast 435 501 27,000  Level Kansas City Center
12:44PM 37.3767 -101.4590 129° Southeast 435 501 27,000  Level Kansas City Center
12:45PM 37.3000 -101.3420 131° Southeast 435 501 27,000  Level Kansas City Center
12:46PM 37.2286 -101.2390 132° Southeast 435 501 27,000  Level Kansas City Center
12:47PM 37.1397 -101.1140 131° Southeast 435 501 27,000  Level Kansas City Center
12:48PM 37.0603 -101.0000 128° Southeast 435 501 27,000  Level Kansas City Center
12:49PM 36.9950 -100.8960 127° Southeast 435 501 27,000  Level Kansas City Center
12:50PM 36.9222 -100.7760 130° Southeast 435 501 27,000  Level Kansas City Center
12:51PM 36.8369 -100.6490 129° Southeast 435 501 27,000  Level Kansas City Center
12:52PM 36.7617 -100.5320 128° Southeast 430 495 27,000  Level Kansas City Center
12:53PM 36.6961 -100.4260 128° Southeast 425 489 27,000  Level Kansas City Center
12:54PM 36.6147 -100.2980 129° Southeast 425 489 27,000  Level Kansas City Center
12:55PM 36.5389 -100.1830 129° Southeast 425 489 27,000  Level Kansas City Center
12:56PM 36.4631 -100.0670 128° Southeast 425 489 27,000  Level Kansas City Center
12:57PM 36.3892 -99.9478 125° Southeast 425 489 27,000  Level Kansas City Center
12:58PM 36.3217 -99.8272 118° Southeast 425 489 27,000  Level Kansas City Center
01:00PM 36.2050 -99.5531 115° Southeast 456 525 27,000  Level Fort Worth Center
01:01PM 36.1492 -99.4053 119° Southeast 444 511 27,000  Level Fort Worth Center
01:02PM 36.0969 -99.2883 119° Southeast 439 505 27,000  Level Fort Worth Center
01:03PM 36.0383 -99.1586 118° Southeast 439 505 27,000  Level Fort Worth Center
01:04PM 35.9736 -99.0111 118° Southeast 446 513 27,000  Level Fort Worth Center
01:05PM 35.9167 -98.8794 118° Southeast 446 513 27,000  Level Fort Worth Center
01:06PM 35.8600 -98.7453 119° Southeast 436 502 27,000  Level Fort Worth Center
01:07PM 35.8008 -98.6136 116° Southeast 436 502 27,000  Level Fort Worth Center
01:08PM 35.7458 -98.4775 114° Southeast 442 509 27,000  Level Fort Worth Center
01:09PM 35.7050 -98.3669 111° Southeast 436 502 27,000  Level Fort Worth Center
01:10PM 35.6519 -98.1978 114° Southeast 436 502 27,000  Level Fort Worth Center
01:11PM 35.6025 -98.0594 113° Southeast 442 509 27,000  Level Fort Worth Center
01:12PM 35.5533 -97.9161 113° Southeast 442 509 27,000  Level Fort Worth Center
01:13PM 35.5036 -97.7706 113° Southeast 447 514 27,000  Level Fort Worth Center
01:14PM 35.4436 -97.5969 115° Southeast 453 521 27,000  Level Fort Worth Center
01:15PM 35.3978 -97.4747 112° Southeast 444 511 27,000  Level Fort Worth Center
01:16PM 35.3542 -97.3447 115° Southeast 434 499 27,000  Level Fort Worth Center
01:17PM 35.3058 -97.2150 114° Southeast 422 486 27,000  Level Fort Worth Center
01:18PM 35.2619 -97.0958 114° Southeast 422 486 27,000  Level Fort Worth Center
01:19PM 35.2050 -96.9383 113° Southeast 422 486 27,000  Level Fort Worth Center
01:20PM 35.1692 -96.8344 114° Southeast 422 486 27,000  Level Fort Worth Center
01:21PM 35.1164 -96.6928 115° Southeast 422 486 27,000  Level Fort Worth Center
01:22PM 35.0675 -96.5636 114° Southeast 422 486 27,000  Level Fort Worth Center
01:23PM 35.0208 -96.4350 114° Southeast 422 486 27,000  Level Fort Worth Center
01:24PM 34.9739 -96.3036 114° Southeast 422 486 27,000  Level Fort Worth Center
01:25PM 34.9267 -96.1753 116° Southeast 422 486 27,000  Level Fort Worth Center
01:26PM 34.8753 -96.0469 115° Southeast 422 486 27,000  Level Fort Worth Center
01:27PM 34.8214 -95.9036 113° Southeast 422 486 27,000  Level Fort Worth Center
01:28PM 34.7761 -95.7728 115° Southeast 422 486 27,000  Level Fort Worth Center
01:29PM 34.7264 -95.6450 113° Southeast 422 486 27,000  Level Fort Worth Center
01:30PM 34.6719 -95.4922 115° Southeast 417 480 27,000  Level Fort Worth Center
01:31PM 34.6219 -95.3594 116° Southeast 417 480 27,000  Level Fort Worth Center
01:32PM 34.5697 -95.2322 114° Southeast 423 487 27,000  Level Fort Worth Center
01:33PM 34.5214 -95.1022 115° Southeast 418 481 27,000  Level Fort Worth Center
01:34PM 34.4731 -94.9750 114° Southeast 418 481 27,000  Level Fort Worth Center
01:35PM 34.4247 -94.8456 116° Southeast 418 481 27,000  Level Fort Worth Center
01:36PM 34.3761 -94.7236 114° Southeast 418 481 27,000  Level Fort Worth Center
01:37PM 34.3275 -94.5944 116° Southeast 413 475 27,000  Level Fort Worth Center
01:38PM 34.2767 -94.4681 114° Southeast 413 475 27,000  Level Fort Worth Center
01:39PM 34.2386 -94.3661 115° Southeast 413 475 27,000  Level Fort Worth Center
01:40PM 34.1808 -94.2178 115° Southeast 413 475 27,000  Level Fort Worth Center
01:41PM 34.1314 -94.0917 116° Southeast 413 475 27,000  Level Fort Worth Center
01:42PM 34.0800 -93.9656 116° Southeast 418 481 27,000  Level Fort Worth Center
01:43PM 34.0286 -93.8372 115° Southeast 418 481 27,000  Level Fort Worth Center
01:44PM 33.9811 -93.7142 116° Southeast 418 481 27,000  Level Fort Worth Center
01:45PM 33.9294 -93.5886 115° Southeast 418 481 27,000  Level Fort Worth Center
01:46PM 33.8794 -93.4608 115° Southeast 418 481 27,000  Level Fort Worth Center
01:47PM 33.8317 -93.3378 117° Southeast 418 481 27,000  Level Fort Worth Center
01:48PM 33.7819 -93.2178 117° Southeast 418 481 27,000  Level Fort Worth Center
01:49PM 33.7297 -93.0928 116° Southeast 413 475 27,000  Level Fort Worth Center
01:50PM 33.6794 -92.9706 117° Southeast 413 475 27,000  Level Fort Worth Center
01:51PM 33.6269 -92.8461 116° Southeast 413 475 27,000  Level Fort Worth Center
01:54PM 33.5244 -92.5950 116° Southeast 409 471 27,000  Level Memphis Center
01:55PM 33.4744 -92.4717 116° Southeast 409 471 27,000  Level Memphis Center
01:56PM 33.4242 -92.3508 117° Southeast 409 471 27,000  Level Memphis Center
01:57PM 33.3739 -92.2303 117° Southeast 409 471 27,000  Level Memphis Center
01:58PM 33.3236 -92.1100 115° Southeast 409 471 27,000  Level Memphis Center
01:59PM 33.2750 -91.9872 123° Southeast 412 474 27,000  Level Memphis Center
02:00PM 33.2158 -91.8769 116° Southeast 419 482 27,000  Level Memphis Center
02:01PM 33.1672 -91.7569 116° Southeast 419 482 27,000  Level Memphis Center
02:02PM 33.1183 -91.6372 118° Southeast 408 470 27,000  Level Memphis Center
02:03PM 33.0592 -91.5025 116° Southeast 413 475 27,000  Level Memphis Center
02:04PM 33.0100 -91.3828 117° Southeast 407 468 27,000  Level Memphis Center
02:05PM 32.9589 -91.2633 117° Southeast 407 468 27,000  Level Memphis Center
02:06PM 32.9075 -91.1417 118° Southeast 412 474 27,000  Level Memphis Center
02:07PM 32.8558 -91.0250 117° Southeast 412 474 27,000  Level Memphis Center
02:08PM 32.8064 -90.9083 127° Southeast 412 474 27,000  Level Memphis Center
02:09PM 32.7400 -90.8019 133° Southeast 412 474 27,000  Level Memphis Center
02:10PM 32.6631 -90.7053 134° Southeast 407 468 27,000  Level Memphis Center
02:11PM 32.5839 -90.6064 133° Southeast 407 468 27,000  Level Memphis Center
02:12PM 32.5089 -90.5100 134° Southeast 401 461 27,000  Level Memphis Center
02:13PM 32.4319 -90.4164 134° Southeast 396 456 27,000  Level Memphis Center
02:14PM 32.3547 -90.3203 134° Southeast 396 456 27,000  Level Memphis Center
02:15PM 32.2772 -90.2247 134° Southeast 396 456 27,000  Level Memphis Center
02:16PM 32.2061 -90.1389 134° Southeast 401 461 27,000  Level Memphis Center
02:17PM 32.1286 -90.0433 134° Southeast 401 461 27,000  Level Memphis Center
02:18PM 32.0492 -89.9456 134° Southeast 401 461 27,000  Level Memphis Center
02:19PM 31.9714 -89.8506 134° Southeast 401 461 27,000  Level Memphis Center
02:20PM 31.8958 -89.7578 135° Southeast 401 461 27,000  Level Memphis Center
02:22PM 31.6897 -89.5147 134° Southeast 416 479 27,000  Level Houston Center
02:23PM 31.6111 -89.4189 135° Southeast 410 472 27,000  Level Houston Center
02:24PM 31.5322 -89.3258 134° Southeast 403 464 27,000  Level Houston Center
02:25PM 31.4533 -89.2303 122° Southeast 403 464 27,000  Level Houston Center
02:26PM 31.3928 -89.1175 119° Southeast 403 464 27,000  Level Houston Center
02:27PM 31.3364 -88.9975 119° Southeast 409 471 27,000  Level Houston Center
02:28PM 31.2819 -88.8822 119° Southeast 409 471 27,000  Level Houston Center
02:29PM 31.2272 -88.7675 119° Southeast 409 471 27,000  Level Houston Center
02:30PM 31.1706 -88.6503 117° Southeast 409 471 27,000  Level Houston Center
02:31PM 31.1178 -88.5306 120° Southeast 409 471 27,000 -480 Level Houston Center
02:32PM 31.0586 -88.4111 120° Southeast 414 476 26,100 -900 Descending Houston Center
02:34PM 30.9147 -88.1200 119° Southeast 463 533 24,000 -660 Descending Jacksonville Center
02:35PM 30.8533 -87.9931 119° Southeast 457 526 24,000  Level Jacksonville Center
02:36PM 30.7936 -87.8667 104° East 457 526 24,000  Level Jacksonville Center
02:37PM 30.7633 -87.7272 85° East 443 510 24,000 -360 Level Jacksonville Center
02:38PM 30.7731 -87.5828 85° East 444 511 23,300 -2,160 Descending Jacksonville Center
02:39PM 30.7847 -87.4333 87° East 449 517 19,700 -3,120 Descending Jacksonville Center
02:40PM 30.7917 -87.2911 86° East 449 517 17,100 -2,880 Descending Jacksonville Center
02:41PM 30.8008 -87.1489 86° East 449 517 14,000 -2,700 Descending Jacksonville Center
02:42PM 30.8094 -87.0164 88° East 421 484 11,800 -1,500 Descending Jacksonville Center
02:43PM 30.8133 -86.8956 84° East 388 447 11,000 -420 Descending Jacksonville Center
02:44PM 30.8228 -86.7894 86° East 338 389 11,000  Level Jacksonville Center
02:45PM 30.8275 -86.7028 117° Southeast 289 333 11,000  Level Jacksonville Center
02:46PM 30.7922 -86.6239 116° Southeast 241 277 11,000 -2,460 Level Jacksonville Center
02:47PM 30.7592 -86.5453 138° Southeast 253 291 6,100 -3,720 Descending Jacksonville Center
02:48PM 30.7064 -86.4900 165° South 259 298 3,600 -1,800 Descending Jacksonville Center
02:49PM 30.6464 -86.4708 192° South 225 259 2,600 -900 Descending Jacksonville Center
02:50PM 30.5958 -86.4833 197° South 200 230 1,800 -840 Descending Jacksonville Center
02:51PM 30.5517 -86.4986 197° South 184 212 1,000 -840 Descending Jacksonville Center